Time;durP1;ratioP1;P1;durP2;ratioP2;P2;SDS_P1;SDS_P2;PMS_P1;PMS_P2;Temp;Humidity;BMP_temperature;BMP_pressure;BME280_temperature;BME280_humidity;BME280_pressure;Samples;Min_cycle;Max_cycle;Signal;HPM_P1;HPM_P2
2021/11/04 00:02:08;;;;;;;3.58;2.00;;;;;;;26.55;23.99;97188.72;5061869;28;20021;-84
2021/11/04 00:04:35;;;;;;;2.70;1.70;;;;;;;26.31;24.46;97187.03;5057217;28;20036;-84
2021/11/04 00:07:02;;;;;;;1.73;1.30;;;;;;;26.73;23.53;97187.88;5063640;28;20490;-84
2021/11/04 00:09:28;;;;;;;2.13;1.75;;;;;;;27.24;23.04;97183.03;5076570;28;20020;-84
2021/11/04 00:11:54;;;;;;;1.60;1.40;;;;;;;27.67;22.36;97172.47;5063499;28;20037;-84
2021/11/04 00:14:20;;;;;;;2.28;1.67;;;;;;;27.59;22.74;97176.91;5060616;28;20051;-84
2021/11/04 00:16:46;;;;;;;2.33;1.70;;;;;;;27.82;22.46;97171.28;5061038;28;20071;-84
2021/11/04 00:19:12;;;;;;;2.90;1.92;;;;;;;27.60;22.47;97156.72;5061677;28;20040;-84
2021/11/04 00:21:38;;;;;;;5.25;2.40;;;;;;;26.87;23.53;97159.09;5047147;28;20051;-84
2021/11/04 00:24:05;;;;;;;1.40;1.25;;;;;;;26.62;24.22;97145.38;5071890;28;20035;-84
2021/11/04 00:26:31;;;;;;;1.15;1.05;;;;;;;26.99;23.49;97140.41;5059726;28;20360;-84
2021/11/04 00:28:57;;;;;;;1.67;1.20;;;;;;;27.46;22.94;97134.09;5061825;28;20031;-84
2021/11/04 00:31:24;;;;;;;1.73;1.50;;;;;;;27.27;23.14;97127.75;5060504;28;20025;-84
2021/11/04 00:33:55;;;;;;;3.10;2.03;;;;;;;25.87;24.59;97133.88;5061215;28;20036;-84
2021/11/04 00:36:22;;;;;;;2.58;1.90;;;;;;;24.25;27.01;97136.91;5060948;28;20115;-83
2021/11/04 00:38:49;;;;;;;2.33;1.70;;;;;;;23.41;28.87;97135.88;5061660;28;20025;-84
2021/11/04 00:41:16;;;;;;;3.22;1.60;;;;;;;24.80;26.40;97135.97;5067596;28;20506;-84
2021/11/04 00:43:43;;;;;;;1.90;1.48;;;;;;;25.96;24.65;97138.72;5058484;28;20167;-84
2021/11/04 00:46:10;;;;;;;3.17;1.60;;;;;;;26.57;23.87;97126.31;5063886;28;20454;-83
2021/11/04 00:48:36;;;;;;;3.28;1.67;;;;;;;26.77;23.51;97125.81;5058406;28;20114;-83
2021/11/04 00:51:04;;;;;;;3.28;1.75;;;;;;;26.97;23.13;97117.56;5062772;28;20028;-84
2021/11/04 00:53:30;;;;;;;3.85;1.67;;;;;;;27.19;22.50;97104.00;5061007;28;20572;-84
2021/11/04 00:55:58;;;;;;;3.22;1.95;;;;;;;27.45;22.65;97093.03;5062063;28;20025;-83
2021/11/04 00:58:24;;;;;;;2.53;2.33;;;;;;;26.98;22.68;97093.78;5059986;28;20127;-83
2021/11/04 01:00:50;;;;;;;2.47;2.28;;;;;;;24.99;25.92;97089.88;5040643;28;20025;-83
2021/11/04 01:03:17;;;;;;;3.72;2.17;;;;;;;25.60;24.87;97100.13;5057215;28;20040;-83
2021/11/04 01:05:44;;;;;;;3.05;2.03;;;;;;;26.30;23.86;97092.59;5064280;28;20427;-83
2021/11/04 01:08:10;;;;;;;4.05;2.30;;;;;;;26.01;24.10;97084.66;5063382;28;20032;-83
2021/11/04 01:10:36;;;;;;;5.57;2.03;;;;;;;25.97;24.28;97081.22;5057969;28;20040;-84
2021/11/04 01:13:02;;;;;;;2.88;2.08;;;;;;;26.49;23.23;97086.44;5057360;28;20028;-83
2021/11/04 01:15:29;;;;;;;4.72;3.78;;;;;;;25.97;23.89;97084.84;5048142;28;20115;-83
2021/11/04 01:17:55;;;;;;;4.20;2.47;;;;;;;26.32;23.54;97092.91;5059084;28;20040;-83
2021/11/04 01:20:21;;;;;;;4.07;2.53;;;;;;;26.02;23.95;97074.97;5060184;28;20536;-84
2021/11/04 01:22:49;;;;;;;3.95;2.67;;;;;;;25.15;24.99;97064.31;5065152;28;20404;-83
2021/11/04 01:25:15;;;;;;;2.97;2.10;;;;;;;25.19;24.99;97055.72;5040211;28;20055;-83
2021/11/04 01:27:41;;;;;;;2.80;2.40;;;;;;;25.46;24.56;97071.88;5060486;28;20036;-84
2021/11/04 01:30:08;;;;;;;2.97;2.58;;;;;;;26.16;23.54;97079.97;5066206;28;20037;-84
2021/11/04 01:32:34;;;;;;;3.78;3.10;;;;;;;26.38;23.21;97069.28;5068737;28;20033;-83
2021/11/04 01:35:02;;;;;;;2.65;2.20;;;;;;;26.17;23.41;97077.94;5055673;28;20427;-84
2021/11/04 01:37:28;;;;;;;3.95;2.42;;;;;;;26.51;22.78;97066.28;5056876;28;20048;-83
2021/11/04 01:39:54;;;;;;;3.13;2.17;;;;;;;26.43;23.07;97053.78;5050026;28;20037;-83
2021/11/04 01:42:21;;;;;;;2.88;2.25;;;;;;;26.79;22.62;97072.59;5059194;28;20038;-83
2021/11/04 01:44:47;;;;;;;4.53;2.45;;;;;;;27.16;22.05;97066.28;5058834;28;20371;-83
2021/11/04 01:47:14;;;;;;;4.82;2.28;;;;;;;26.35;23.06;97061.78;5056000;28;20494;-84
2021/11/04 01:49:41;;;;;;;3.22;2.75;;;;;;;25.29;24.47;97058.09;5064413;28;20037;-83
2021/11/04 01:52:09;;;;;;;3.03;2.40;;;;;;;25.69;24.00;97062.81;5042516;28;20565;-84
2021/11/04 01:54:36;;;;;;;3.50;2.50;;;;;;;26.19;23.62;97059.31;5059549;28;20110;-84
2021/11/04 01:57:03;;;;;;;3.58;3.08;;;;;;;26.62;22.98;97055.28;5058473;28;20036;-84
2021/11/04 01:59:29;;;;;;;5.00;3.50;;;;;;;25.39;24.19;97047.66;5056704;28;20389;-84
2021/11/04 02:02:04;;;;;;;3.22;2.35;;;;;;;25.27;24.66;97040.94;5058698;28;20114;-84
2021/11/04 02:04:57;;;;;;;3.63;2.75;;;;;;;24.51;25.59;97024.03;5058244;28;20044;-84
2021/11/04 02:07:35;;;;;;;2.63;2.42;;;;;;;24.78;25.56;97012.13;5050893;28;20041;-85
2021/11/04 02:10:25;;;;;;;3.58;2.47;;;;;;;25.62;24.28;97015.34;5057313;28;20105;-84
2021/11/04 02:13:01;;;;;;;3.28;2.70;;;;;;;25.71;24.13;97010.50;5044779;28;20370;-84
2021/11/04 02:15:29;;;;;;;4.25;2.75;;;;;;;26.25;23.81;97018.06;5056104;28;20029;-84
2021/11/04 02:17:57;;;;;;;4.47;2.15;;;;;;;26.88;22.74;97021.84;5062027;28;20063;-84
2021/11/04 02:20:35;;;;;;;4.18;3.40;;;;;;;27.12;22.47;97014.19;5060054;28;20405;-85
2021/11/04 02:23:17;;;;;;;3.42;2.10;;;;;;;26.88;22.95;97017.00;5050697;28;20397;-85
2021/11/04 02:25:44;;;;;;;3.15;2.45;;;;;;;26.95;22.54;97011.00;5057490;28;20032;-85
2021/11/04 02:28:13;;;;;;;2.67;1.95;;;;;;;27.23;22.34;97008.78;5055032;28;20059;-84
2021/11/04 02:30:40;;;;;;;3.05;2.05;;;;;;;27.57;21.85;97008.19;5060265;28;20036;-84
2021/11/04 02:33:07;;;;;;;2.58;1.98;;;;;;;27.11;22.25;96996.50;5058964;28;20604;-84
2021/11/04 02:35:34;;;;;;;2.25;1.98;;;;;;;26.76;22.57;96991.88;5059095;28;20106;-84
2021/11/04 02:38:00;;;;;;;3.08;2.28;;;;;;;27.04;22.34;96981.97;5056899;28;20089;-84
2021/11/04 02:40:27;;;;;;;3.65;2.13;;;;;;;27.33;22.33;96984.88;5062929;28;20028;-84
2021/11/04 02:42:53;;;;;;;3.17;1.98;;;;;;;27.58;21.81;96978.75;5065661;28;20040;-84
2021/11/04 02:45:24;;;;;;;2.20;1.77;;;;;;;27.82;21.54;96989.97;5058615;28;20048;-84
2021/11/04 02:47:50;;;;;;;3.05;2.17;;;;;;;26.66;22.95;96993.94;5059759;28;20040;-83
2021/11/04 02:50:18;;;;;;;3.65;1.60;;;;;;;26.65;23.14;96987.50;5064381;28;20174;-84
2021/11/04 02:52:45;;;;;;;3.33;2.03;;;;;;;26.91;22.62;96992.72;5057178;28;20033;-84
2021/11/04 02:55:11;;;;;;;3.03;1.98;;;;;;;27.31;22.15;96991.00;5037091;28;20134;-84
2021/11/04 02:57:48;;;;;;;2.85;2.00;;;;;;;26.56;23.01;96993.19;5061504;28;20177;-84
2021/11/04 03:00:17;;;;;;;2.60;1.75;;;;;;;26.02;23.95;96982.16;5057602;28;20076;-84
2021/11/04 03:02:43;;;;;;;2.30;1.60;;;;;;;26.48;23.31;96971.50;5057173;28;20175;-84
2021/11/04 03:05:10;;;;;;;4.05;3.10;;;;;;;25.61;24.25;96963.94;5058531;28;20056;-84
2021/11/04 03:07:36;;;;;;;2.42;1.85;;;;;;;25.22;24.81;96951.66;5055588;28;20036;-84
2021/11/04 03:10:03;;;;;;;2.47;2.03;;;;;;;25.90;24.31;96966.25;5060073;28;20495;-84
2021/11/04 03:12:29;;;;;;;2.22;1.95;;;;;;;26.38;23.58;96955.91;5054270;28;20103;-84
2021/11/04 03:14:57;;;;;;;2.05;1.75;;;;;;;26.74;22.90;96959.31;5060384;28;20035;-84
2021/11/04 03:17:24;;;;;;;3.97;2.33;;;;;;;26.43;23.26;96967.31;5058837;28;20041;-84
2021/11/04 03:19:52;;;;;;;3.40;2.30;;;;;;;26.63;23.05;96967.50;5063929;28;20121;-84
2021/11/04 03:22:18;;;;;;;1.92;1.77;;;;;;;25.97;24.01;96951.84;5059374;28;20575;-84
2021/11/04 03:24:44;;;;;;;1.98;1.75;;;;;;;26.24;23.69;96951.75;5058854;28;20036;-84
2021/11/04 03:27:11;;;;;;;3.03;2.05;;;;;;;26.52;23.21;96950.38;5061372;28;20086;-84
2021/11/04 03:29:41;;;;;;;2.47;2.17;;;;;;;26.22;23.71;96948.63;5059863;28;20049;-84
2021/11/04 03:32:15;;;;;;;1.83;1.38;;;;;;;26.24;23.79;96948.16;5066200;28;20106;-84
2021/11/04 03:34:43;;;;;;;1.45;1.30;;;;;;;26.23;23.91;96952.25;5043302;28;20032;-84
2021/11/04 03:37:11;;;;;;;2.38;1.73;;;;;;;26.65;23.35;96945.28;5057308;28;20025;-84
2021/11/04 03:39:40;;;;;;;1.58;1.48;;;;;;;26.65;23.06;96942.44;5064640;28;20568;-84
2021/11/04 03:42:07;;;;;;;1.40;1.15;;;;;;;27.04;22.92;96946.13;5060992;28;20040;-84
2021/11/04 03:44:33;;;;;;;1.45;1.15;;;;;;;26.52;23.47;96943.94;5058636;28;20033;-84
2021/11/04 03:47:02;;;;;;;2.47;2.05;;;;;;;25.85;24.20;96938.75;5059793;28;20065;-84
2021/11/04 03:49:31;;;;;;;2.38;1.50;;;;;;;25.63;24.64;96929.75;5067767;28;20119;-84
2021/11/04 03:51:57;;;;;;;6.32;1.30;;;;;;;25.41;25.42;96944.72;5061192;28;20115;-84
2021/11/04 03:54:26;;;;;;;1.73;1.35;;;;;;;25.98;24.20;96934.47;5070078;28;20137;-83
2021/11/04 03:56:54;;;;;;;3.00;1.25;;;;;;;26.35;23.72;96940.75;5066727;28;20063;-83
2021/11/04 03:59:20;;;;;;;3.33;1.98;;;;;;;25.59;24.46;96924.28;5065935;28;20090;-84
2021/11/04 04:01:47;;;;;;;1.75;1.20;;;;;;;26.36;23.72;96933.88;5064434;28;20041;-84
2021/11/04 04:04:13;;;;;;;2.08;1.35;;;;;;;26.04;24.22;96917.75;5063447;28;20081;-85
2021/11/04 04:06:40;;;;;;;1.30;1.10;;;;;;;26.74;23.61;96933.19;5062668;28;20039;-84
2021/11/04 04:09:09;;;;;;;2.22;1.45;;;;;;;27.19;22.65;96927.22;5074638;28;20433;-84
2021/11/04 04:11:35;;;;;;;2.67;1.60;;;;;;;27.51;22.07;96919.91;5056026;28;20046;-85
2021/11/04 04:14:01;;;;;;;2.95;1.40;;;;;;;27.46;22.15;96911.34;5059423;28;20033;-84
2021/11/04 04:16:28;;;;;;;3.03;1.50;;;;;;;27.40;22.27;96902.78;5073257;28;20090;-84
2021/11/04 04:18:54;;;;;;;2.65;1.20;;;;;;;27.38;22.39;96896.84;5060883;28;20032;-84
2021/11/04 04:21:20;;;;;;;1.27;1.15;;;;;;;27.32;22.11;96898.78;5060001;28;20135;-84
2021/11/04 04:23:46;;;;;;;1.70;1.10;;;;;;;27.38;22.19;96902.50;5059280;28;20044;-84
2021/11/04 04:26:13;;;;;;;3.85;1.35;;;;;;;27.38;22.22;96903.28;5055068;28;20074;-84
2021/11/04 04:28:39;;;;;;;1.58;1.00;;;;;;;27.43;22.42;96904.63;5059147;28;20021;-84
2021/11/04 04:31:05;;;;;;;3.65;1.88;;;;;;;27.48;22.10;96901.16;5063063;28;20469;-84
2021/11/04 04:33:31;;;;;;;2.83;1.70;;;;;;;27.21;22.49;96888.06;5070502;28;20067;-85
2021/11/04 04:35:57;;;;;;;3.10;1.40;;;;;;;27.18;22.31;96888.25;5061317;28;20408;-83
2021/11/04 04:38:23;;;;;;;2.25;1.30;;;;;;;27.36;21.90;96886.03;5069203;28;20032;-83
2021/11/04 04:40:50;;;;;;;2.47;1.73;;;;;;;27.27;22.26;96879.72;5065992;28;20035;-83
2021/11/04 04:43:16;;;;;;;3.58;1.45;;;;;;;27.14;22.08;96877.16;5066462;28;20060;-84
2021/11/04 04:45:43;;;;;;;1.30;1.20;;;;;;;26.59;22.86;96871.19;5073438;28;20439;-84
2021/11/04 04:48:10;;;;;;;2.28;1.42;;;;;;;26.15;23.51;96884.28;5068315;28;20029;-84
2021/11/04 04:50:40;;;;;;;1.95;0.93;;;;;;;26.32;23.39;96881.84;5065270;28;20036;-84
2021/11/04 04:53:07;;;;;;;1.35;1.20;;;;;;;26.17;23.81;96884.56;5066981;28;20056;-84
2021/11/04 04:55:34;;;;;;;1.55;1.30;;;;;;;24.71;25.54;96886.84;5062728;28;20025;-84
2021/11/04 04:58:00;;;;;;;1.35;1.25;;;;;;;23.63;27.37;96875.31;5068837;28;20086;-84
2021/11/04 05:00:27;;;;;;;1.92;1.35;;;;;;;23.44;28.07;96880.03;5062933;28;20107;-84
2021/11/04 05:02:53;;;;;;;1.63;1.50;;;;;;;23.99;27.18;96873.44;5066884;28;20028;-84
2021/11/04 05:05:19;;;;;;;3.90;1.48;;;;;;;24.61;26.48;96865.66;5063051;28;20028;-84
2021/11/04 05:07:46;;;;;;;1.52;1.42;;;;;;;25.15;25.66;96859.25;5071085;28;20033;-82
2021/11/04 05:10:12;;;;;;;1.35;1.20;;;;;;;25.96;24.34;96858.25;5074702;28;20037;-83
2021/11/04 05:12:38;;;;;;;1.65;1.40;;;;;;;26.54;23.89;96863.38;5072440;28;20392;-83
2021/11/04 05:15:05;;;;;;;1.88;1.30;;;;;;;26.96;23.04;96859.63;5073430;28;20036;-83
2021/11/04 05:17:34;;;;;;;1.83;1.25;;;;;;;27.08;22.92;96861.41;5066750;28;20456;-84
2021/11/04 05:20:02;;;;;;;2.05;1.30;;;;;;;27.32;22.61;96856.50;5069158;28;20107;-85
2021/11/04 05:22:28;;;;;;;1.58;1.15;;;;;;;27.26;22.78;96855.59;5057123;28;20040;-83
2021/11/04 05:24:54;;;;;;;1.75;0.95;;;;;;;27.33;22.84;96847.53;5058425;28;20071;-83
2021/11/04 05:27:20;;;;;;;2.35;1.00;;;;;;;27.23;22.80;96845.31;5053826;28;20068;-83
2021/11/04 05:29:46;;;;;;;3.17;1.30;;;;;;;26.86;23.67;96827.19;5054782;28;20036;-83
2021/11/04 05:32:12;;;;;;;1.35;1.25;;;;;;;26.79;23.87;96824.75;5052805;28;20147;-83
2021/11/04 05:34:40;;;;;;;1.33;1.08;;;;;;;26.83;23.94;96811.25;5051201;28;20178;-83
2021/11/04 05:37:10;;;;;;;1.67;1.02;;;;;;;26.54;24.56;96803.47;5050879;28;20032;-83
2021/11/04 05:39:38;;;;;;;1.08;0.98;;;;;;;26.39;24.77;96797.84;5050372;28;20047;-83
2021/11/04 05:42:07;;;;;;;1.95;1.25;;;;;;;26.57;24.76;96782.81;5049357;28;20028;-82
2021/11/04 05:44:34;;;;;;;1.45;0.90;;;;;;;26.35;25.17;96783.16;5048085;28;20118;-83
2021/11/04 05:47:00;;;;;;;2.85;1.20;;;;;;;26.50;25.04;96783.97;5038627;28;20432;-83
2021/11/04 05:49:26;;;;;;;1.25;0.93;;;;;;;26.62;24.95;96785.75;5052362;28;23006;-82
2021/11/04 05:51:52;;;;;;;2.55;0.90;;;;;;;26.65;25.10;96779.16;5052795;28;20615;-82
2021/11/04 05:54:18;;;;;;;1.98;1.23;;;;;;;26.24;25.50;96756.81;5066198;28;20449;-82
2021/11/04 05:56:44;;;;;;;0.98;0.70;;;;;;;26.21;25.67;96758.56;5065737;28;20037;-82
2021/11/04 05:59:10;;;;;;;1.52;0.88;;;;;;;26.30;25.86;96744.41;5060804;28;20107;-83
2021/11/04 06:01:36;;;;;;;4.13;1.45;;;;;;;26.19;25.88;96751.84;5050637;28;20036;-82
2021/11/04 06:04:03;;;;;;;1.45;1.08;;;;;;;26.34;25.39;96747.06;5063401;28;20044;-84
2021/11/04 06:06:29;;;;;;;1.25;0.88;;;;;;;26.87;24.77;96733.75;5069303;28;20025;-83
2021/11/04 06:08:55;;;;;;;1.10;0.98;;;;;;;27.30;24.18;96724.50;5063102;28;20037;-82
2021/11/04 06:11:21;;;;;;;1.08;0.98;;;;;;;27.35;24.12;96717.41;5064733;28;20078;-82
2021/11/04 06:13:47;;;;;;;1.83;0.80;;;;;;;27.55;23.96;96720.28;5070867;28;20481;-82
2021/11/04 06:16:14;;;;;;;1.15;0.85;;;;;;;27.93;23.65;96722.91;5073538;28;20077;-82
2021/11/04 06:18:41;;;;;;;1.42;0.98;;;;;;;28.32;23.08;96728.28;5052897;28;20033;-82
2021/11/04 06:21:07;;;;;;;1.40;0.93;;;;;;;28.60;22.82;96730.19;5071725;28;20513;-82
2021/11/04 06:23:34;;;;;;;1.63;0.98;;;;;;;28.89;22.24;96729.19;5057010;28;20415;-85
2021/11/04 06:26:00;;;;;;;1.25;0.90;;;;;;;28.75;22.47;96732.91;5063275;28;20116;-83
2021/11/04 06:28:26;;;;;;;0.73;0.73;;;;;;;28.74;22.74;96732.13;5074013;28;20444;-83
2021/11/04 06:30:52;;;;;;;1.35;0.95;;;;;;;28.86;22.58;96724.53;5064091;28;20032;-84
2021/11/04 06:33:18;;;;;;;3.10;0.80;;;;;;;28.82;22.89;96726.81;5069959;28;20043;-84
2021/11/04 06:35:44;;;;;;;1.17;1.05;;;;;;;29.11;22.56;96729.38;5068545;28;20493;-84
2021/11/04 06:38:10;;;;;;;1.13;0.80;;;;;;;28.74;22.92;96734.94;5069827;28;20029;-83
2021/11/04 06:40:36;;;;;;;1.70;0.98;;;;;;;28.33;23.64;96738.31;5067392;28;20048;-84
2021/11/04 06:43:02;;;;;;;1.50;0.80;;;;;;;28.26;23.91;96738.72;5066430;28;20101;-84
2021/11/04 06:45:32;;;;;;;0.93;0.85;;;;;;;27.85;24.31;96727.41;5080807;28;20036;-85
2021/11/04 06:48:01;;;;;;;1.30;0.80;;;;;;;27.37;25.19;96717.72;5068612;28;20028;-84
2021/11/04 06:50:32;;;;;;;1.20;0.80;;;;;;;27.29;25.30;96708.06;5068894;28;20483;-85
2021/11/04 06:53:09;;;;;;;2.53;0.68;;;;;;;27.51;24.77;96702.81;5072941;28;20032;-85
2021/11/04 06:55:40;;;;;;;2.17;0.80;;;;;;;28.25;23.88;96704.06;5073662;28;20029;-84
2021/11/04 06:58:14;;;;;;;2.85;0.88;;;;;;;28.46;23.21;96704.81;5073872;28;20089;-84
2021/11/04 07:00:45;;;;;;;3.05;0.70;;;;;;;28.57;23.74;96714.19;5051489;28;20089;-84
2021/11/04 07:03:18;;;;;;;2.67;0.77;;;;;;;28.69;23.48;96717.94;5068558;28;20035;-85
2021/11/04 07:05:45;;;;;;;0.95;0.95;;;;;;;28.85;23.21;96705.25;5068532;28;20519;-85
2021/11/04 07:08:20;;;;;;;0.70;0.60;;;;;;;28.99;23.26;96707.94;5048538;28;20037;-85
2021/11/04 07:10:47;;;;;;;0.63;0.40;;;;;;;29.50;22.25;96709.91;5075476;28;20384;-85
2021/11/04 07:13:15;;;;;;;1.75;1.35;;;;;;;29.67;22.25;96715.69;5073124;28;20446;-84
2021/11/04 07:15:42;;;;;;;1.20;0.80;;;;;;;29.16;22.85;96708.88;5057088;28;20032;-85
2021/11/04 07:18:10;;;;;;;1.73;0.88;;;;;;;28.94;23.16;96725.63;5073451;28;20036;-85
2021/11/04 07:20:38;;;;;;;3.42;0.60;;;;;;;28.76;23.73;96731.63;5054264;28;20044;-85
2021/11/04 07:23:08;;;;;;;0.95;0.50;;;;;;;29.20;23.39;96742.59;5071010;28;20036;-85
2021/11/04 07:25:37;;;;;;;0.90;0.45;;;;;;;29.67;22.90;96730.63;5069704;28;20448;-84
2021/11/04 07:28:15;;;;;;;1.35;0.90;;;;;;;29.03;23.71;96725.47;5070831;28;20025;-84
2021/11/04 07:30:42;;;;;;;1.15;0.60;;;;;;;29.17;23.63;96718.88;5068307;28;20514;-84
2021/11/04 07:33:09;;;;;;;0.70;0.70;;;;;;;28.81;23.86;96713.16;5075077;28;20036;-85
2021/11/04 07:35:41;;;;;;;0.60;0.60;;;;;;;28.41;24.70;96716.81;5056819;28;20508;-84
2021/11/04 07:38:13;;;;;;;1.90;1.02;;;;;;;28.61;24.10;96722.50;5056594;28;20041;-84
2021/11/04 07:40:39;;;;;;;1.40;0.57;;;;;;;28.22;24.56;96712.75;5037312;28;20044;-84
2021/11/04 07:43:06;;;;;;;0.60;0.60;;;;;;;28.64;24.23;96716.59;5070489;28;20037;-84
2021/11/04 07:45:33;;;;;;;1.40;0.80;;;;;;;27.92;25.34;96707.22;5053639;28;20037;-84
2021/11/04 07:48:00;;;;;;;0.60;0.50;;;;;;;28.60;24.56;96715.28;5073017;28;20032;-84
2021/11/04 07:50:29;;;;;;;1.75;1.00;;;;;;;28.12;24.57;96692.38;5069191;28;20131;-84
2021/11/04 07:52:56;;;;;;;0.88;0.70;;;;;;;26.66;27.25;96693.44;5073108;28;20036;-84
2021/11/04 07:55:23;;;;;;;0.85;0.65;;;;;;;27.83;25.43;96704.56;5062832;28;20047;-84
2021/11/04 07:57:50;;;;;;;1.25;1.00;;;;;;;26.13;28.25;96670.16;5044225;28;20036;-84
2021/11/04 08:00:19;;;;;;;1.15;0.80;;;;;;;27.50;26.28;96678.69;5061550;28;20040;-84
2021/11/04 08:02:45;;;;;;;1.63;0.90;;;;;;;28.21;25.21;96680.16;5068251;28;20052;-84
2021/11/04 08:05:14;;;;;;;2.70;1.20;;;;;;;27.59;25.89;96670.09;5070300;28;20035;-84
2021/11/04 08:07:41;;;;;;;1.75;0.93;;;;;;;27.93;25.47;96658.00;5070969;28;20551;-84
2021/11/04 08:10:12;;;;;;;2.90;0.77;;;;;;;28.08;25.21;96667.19;5046897;28;20549;-84
2021/11/04 08:12:39;;;;;;;1.48;0.68;;;;;;;28.47;24.85;96669.69;5065809;28;20040;-84
2021/11/04 08:15:07;;;;;;;1.48;0.80;;;;;;;28.72;24.63;96664.06;5062919;28;20083;-84
2021/11/04 08:17:34;;;;;;;1.25;0.95;;;;;;;28.51;24.79;96664.56;5071002;28;20493;-84
2021/11/04 08:20:00;;;;;;;1.08;0.77;;;;;;;28.04;25.01;96661.00;5068873;28;20070;-85
2021/11/04 08:22:26;;;;;;;1.70;1.00;;;;;;;28.61;25.37;96668.81;5072026;28;20033;-84
2021/11/04 08:24:53;;;;;;;1.50;0.80;;;;;;;28.18;24.92;96667.03;5067622;28;20078;-84
2021/11/04 08:27:19;;;;;;;1.83;0.70;;;;;;;28.31;25.29;96659.00;5065625;28;20545;-85
2021/11/04 08:29:46;;;;;;;1.25;0.73;;;;;;;28.54;24.78;96652.28;5063190;28;20029;-84
2021/11/04 08:32:12;;;;;;;1.58;0.70;;;;;;;29.41;23.85;96673.34;5060103;28;20066;-84
2021/11/04 08:34:40;;;;;;;1.30;0.60;;;;;;;29.83;23.16;96675.44;5071554;28;20565;-84
2021/11/04 08:37:07;;;;;;;0.73;0.73;;;;;;;30.12;22.77;96663.72;5066242;28;20035;-84
2021/11/04 08:39:33;;;;;;;1.38;0.60;;;;;;;30.35;22.87;96667.44;5068443;28;20036;-84
2021/11/04 08:42:00;;;;;;;0.65;0.60;;;;;;;30.31;22.52;96666.88;5066012;28;20017;-84
2021/11/04 08:44:26;;;;;;;0.90;0.73;;;;;;;30.19;22.88;96651.13;5049239;28;20485;-84
2021/11/04 08:46:52;;;;;;;1.20;0.57;;;;;;;29.80;23.61;96637.59;5052635;28;20390;-84
2021/11/04 08:49:19;;;;;;;1.98;1.02;;;;;;;28.94;24.35;96632.38;5066634;28;20037;-84
2021/11/04 08:51:45;;;;;;;1.13;0.68;;;;;;;28.79;24.72;96622.50;5065482;28;20555;-82
2021/11/04 08:54:11;;;;;;;1.02;0.70;;;;;;;28.69;25.00;96621.91;5065225;28;20510;-83
2021/11/04 08:56:38;;;;;;;1.17;0.80;;;;;;;28.33;25.25;96614.09;5080643;28;20111;-84
2021/11/04 08:59:05;;;;;;;2.05;1.25;;;;;;;28.21;25.72;96601.91;5074321;28;20033;-84
2021/11/04 09:01:33;;;;;;;1.83;0.70;;;;;;;28.98;25.04;96603.91;5072359;28;20025;-84
2021/11/04 09:03:59;;;;;;;2.03;0.90;;;;;;;29.01;24.99;96605.72;5069723;28;20028;-84
2021/11/04 09:06:25;;;;;;;1.25;0.70;;;;;;;29.15;24.66;96616.84;5071535;28;20044;-84
2021/11/04 09:08:52;;;;;;;2.97;1.02;;;;;;;28.70;25.28;96631.94;5056736;28;20044;-83
2021/11/04 09:11:18;;;;;;;2.03;1.38;;;;;;;28.55;25.23;96637.66;5080819;28;20039;-83
2021/11/04 09:13:44;;;;;;;1.00;0.90;;;;;;;28.31;25.23;96637.16;5073756;28;20033;-84
2021/11/04 09:16:10;;;;;;;1.20;1.00;;;;;;;28.43;25.60;96652.94;5073486;28;20371;-84
2021/11/04 09:18:36;;;;;;;1.13;0.77;;;;;;;28.97;24.95;96644.72;5073417;28;20040;-83
2021/11/04 09:21:03;;;;;;;3.03;0.90;;;;;;;28.87;25.22;96637.72;5071171;28;20068;-84
2021/11/04 09:23:29;;;;;;;1.45;1.20;;;;;;;28.33;25.59;96628.22;5067500;28;20044;-84
2021/11/04 09:25:55;;;;;;;1.63;1.10;;;;;;;28.67;25.29;96622.41;5072238;28;20152;-84
2021/11/04 09:28:21;;;;;;;2.47;1.80;;;;;;;28.56;25.01;96613.03;5074094;28;20079;-84
2021/11/04 09:30:47;;;;;;;0.98;0.65;;;;;;;28.81;25.39;96608.63;5073464;28;20521;-84
2021/11/04 09:33:14;;;;;;;1.60;0.95;;;;;;;29.16;24.71;96607.13;5051393;28;20032;-84
2021/11/04 09:35:41;;;;;;;2.63;1.15;;;;;;;29.22;25.24;96610.00;5063606;28;20882;-84
2021/11/04 09:38:07;;;;;;;1.40;1.00;;;;;;;29.05;24.79;96617.56;5071299;28;20086;-84
2021/11/04 09:40:34;;;;;;;1.17;1.08;;;;;;;29.00;25.20;96598.50;5071057;28;20038;-84
2021/11/04 09:43:01;;;;;;;4.03;0.80;;;;;;;29.08;24.79;96610.91;5066767;28;20068;-84
2021/11/04 09:45:28;;;;;;;2.67;1.20;;;;;;;29.21;24.84;96606.41;5073118;28;20036;-84
2021/11/04 09:47:55;;;;;;;1.85;0.90;;;;;;;29.34;24.74;96592.59;5064835;28;20033;-85
2021/11/04 09:50:22;;;;;;;1.65;0.90;;;;;;;29.30;24.38;96591.28;5071722;28;20093;-84
2021/11/04 09:52:54;;;;;;;1.23;0.80;;;;;;;29.29;24.75;96579.19;5064200;28;20028;-84
2021/11/04 09:55:22;;;;;;;1.23;0.70;;;;;;;29.50;24.63;96581.91;5064356;28;20505;-83
2021/11/04 09:57:50;;;;;;;1.33;1.05;;;;;;;29.49;24.35;96583.94;5071062;28;20035;-83
2021/11/04 10:00:17;;;;;;;1.35;0.80;;;;;;;29.78;23.77;96577.91;5070809;28;20033;-86
2021/11/04 10:02:44;;;;;;;1.50;0.70;;;;;;;30.33;23.74;96588.66;5073316;28;20150;-84
2021/11/04 10:05:15;;;;;;;1.52;0.98;;;;;;;30.17;23.78;96595.03;5065408;28;20033;-84
2021/11/04 10:07:47;;;;;;;2.08;0.77;;;;;;;30.73;23.40;96595.91;5072311;28;20024;-84
2021/11/04 10:10:15;;;;;;;0.95;0.80;;;;;;;31.25;23.08;96608.25;5072245;28;20398;-84
2021/11/04 10:13:01;;;;;;;0.95;0.68;;;;;;;31.44;22.51;96622.69;5071782;28;20039;-84
2021/11/04 10:15:29;;;;;;;0.82;0.40;;;;;;;31.54;22.46;96623.97;5063848;28;20064;-84
2021/11/04 10:18:21;;;;;;;1.02;0.70;;;;;;;31.49;21.84;96624.75;5070748;28;20513;-84
2021/11/04 10:21:03;;;;;;;1.05;0.88;;;;;;;30.57;23.46;96616.50;5062972;28;20102;-84
2021/11/04 10:23:46;;;;;;;0.82;0.65;;;;;;;29.75;24.66;96621.38;5067146;28;20037;-84
2021/11/04 10:26:19;;;;;;;2.25;0.60;;;;;;;30.17;23.59;96634.66;5068641;28;20464;-83
2021/11/04 10:28:48;;;;;;;2.05;0.55;;;;;;;30.65;23.49;96626.81;5068070;28;20025;-84
2021/11/04 10:31:16;;;;;;;0.75;0.70;;;;;;;30.57;23.02;96631.41;5065586;28;20083;-85
2021/11/04 10:33:44;;;;;;;0.95;0.60;;;;;;;31.03;22.95;96618.84;5077931;28;20040;-83
2021/11/04 10:36:15;;;;;;;0.90;0.63;;;;;;;31.07;22.42;96602.34;5071332;28;20068;-83
2021/11/04 10:38:50;;;;;;;0.90;0.80;;;;;;;29.22;24.98;96593.06;5068722;28;20068;-82
2021/11/04 10:41:23;;;;;;;0.88;0.65;;;;;;;29.76;24.89;96603.13;5069400;28;20028;-83
2021/11/04 10:43:53;;;;;;;0.93;0.80;;;;;;;29.60;24.59;96617.94;5064456;28;20524;-83
2021/11/04 10:46:20;;;;;;;1.05;0.52;;;;;;;30.31;24.19;96619.53;5072348;28;20036;-83
2021/11/04 10:48:54;;;;;;;0.75;0.57;;;;;;;30.68;23.74;96608.00;5065676;28;20125;-83
2021/11/04 10:51:20;;;;;;;1.95;0.60;;;;;;;30.87;23.28;96617.56;5069630;28;20090;-84
2021/11/04 10:54:01;;;;;;;0.80;0.60;;;;;;;30.72;22.97;96609.28;5070063;28;20043;-84
2021/11/04 10:56:28;;;;;;;1.15;0.80;;;;;;;29.93;24.25;96597.53;5073849;28;20047;-83
2021/11/04 10:58:57;;;;;;;1.08;0.60;;;;;;;30.64;23.52;96605.41;5058291;28;20033;-83
2021/11/04 11:01:31;;;;;;;1.40;0.90;;;;;;;30.44;23.53;96585.84;5064658;28;20116;-83
2021/11/04 11:04:02;;;;;;;1.20;1.10;;;;;;;27.95;27.00;96568.00;5074283;28;20453;-83
2021/11/04 11:06:32;;;;;;;1.30;1.02;;;;;;;27.29;27.71;96534.13;5074091;28;20504;-83
2021/11/04 11:09:02;;;;;;;0.80;0.70;;;;;;;28.25;26.78;96542.41;5078566;28;20032;-82
2021/11/04 11:11:28;;;;;;;1.27;1.00;;;;;;;29.03;25.87;96563.59;5079067;28;20021;-83
2021/11/04 11:13:54;;;;;;;1.38;0.68;;;;;;;30.19;24.02;96566.97;5065696;28;20366;-83
2021/11/04 11:16:20;;;;;;;1.67;1.00;;;;;;;29.23;24.90;96564.25;5063882;28;20025;-83
2021/11/04 11:18:47;;;;;;;1.23;0.68;;;;;;;28.18;26.89;96565.44;5068699;28;20057;-83
2021/11/04 11:21:13;;;;;;;1.23;0.77;;;;;;;29.56;24.87;96588.34;5071758;28;20577;-83
2021/11/04 11:23:40;;;;;;;0.77;0.60;;;;;;;29.84;24.41;96578.72;5074347;28;20032;-82
2021/11/04 11:26:12;;;;;;;0.70;0.70;;;;;;;30.38;23.98;96587.13;5051640;28;20041;-82
2021/11/04 11:28:41;;;;;;;0.70;0.60;;;;;;;29.71;24.63;96586.84;5072510;28;20107;-84
2021/11/04 11:31:13;;;;;;;1.05;0.75;;;;;;;27.84;27.14;96578.38;5072122;28;20040;-82
2021/11/04 11:33:43;;;;;;;1.25;0.70;;;;;;;27.97;27.18;96590.84;5075716;28;20028;-82
2021/11/04 11:36:21;;;;;;;0.52;0.50;;;;;;;29.62;25.29;96606.09;5067036;28;20063;-82
2021/11/04 11:38:56;;;;;;;0.57;0.57;;;;;;;30.68;24.00;96583.28;5064781;28;20508;-82